Time,TemperatureF,DewpointF,PressureIn,WindDirection,WindDirectionDegrees,WindSpeedMPH,WindSpeedGustMPH,Humidity,HourlyPrecipIn,Conditions,Clouds,dailyrainin,SoftwareType,DateUTC
2013-07-21 00:10:00,80.9,78.0,30.06,SE,135,1.0,5.0,91,0.00,,,0.00,WeatherDisplay:10.37,2013-07-21 04:10:00,
2013-07-21 00:20:00,80.9,78.0,30.06,ESE,119,0.0,5.0,91,0.00,,,0.00,WeatherDisplay:10.37,2013-07-21 04:20:00,
2013-07-21 00:30:00,81.0,78.1,30.06,SE,137,0.0,3.0,91,0.00,,,0.00,WeatherDisplay:10.37,2013-07-21 04:30:00,
2013-07-21 00:40:00,81.0,78.5,30.06,SE,136,0.0,1.0,92,0.00,,,0.00,WeatherDisplay:10.37,2013-07-21 04:40:00,
2013-07-21 00:50:00,81.1,78.6,30.06,SE,126,0.0,1.0,92,0.00,,,0.00,WeatherDisplay:10.37,2013-07-21 04:50:00,
2013-07-21 01:00:00,81.2,78.7,30.06,SE,130,0.0,2.0,92,0.00,,,0.00,WeatherDisplay:10.37,2013-07-21 05:00:00,
2013-07-21 01:10:00,81.3,78.8,30.05,South,172,1.0,5.0,92,0.00,,,0.00,WeatherDisplay:10.37,2013-07-21 05:10:00,
2013-07-21 01:20:00,81.3,78.8,30.06,South,173,2.0,5.0,92,0.00,,,0.00,WeatherDisplay:10.37,2013-07-21 05:20:00,
2013-07-21 01:30:00,81.2,78.3,30.05,South,187,3.0,6.0,91,0.00,,,0.00,WeatherDisplay:10.37,2013-07-21 05:30:00,
2013-07-21 01:40:00,81.2,78.3,30.05,South,190,2.0,6.0,91,0.00,,,0.00,WeatherDisplay:10.37,2013-07-21 05:40:00,
2013-07-21 01:50:00,81.3,78.1,30.05,South,186,2.0,6.0,90,0.00,,,0.00,WeatherDisplay:10.37,2013-07-21 05:50:00,
2013-07-21 02:00:00,81.4,78.2,30.05,South,187,2.0,6.0,90,0.00,,,0.00,WeatherDisplay:10.37,2013-07-21 06:00:00,
2013-07-21 02:10:00,81.4,77.8,30.05,South,187,0.0,6.0,89,0.00,,,0.00,WeatherDisplay:10.37,2013-07-21 06:10:00,
2013-07-21 02:20:00,81.5,77.9,30.05,South,189,0.0,4.0,89,0.00,,,0.00,WeatherDisplay:10.37,2013-07-21 06:20:00,
2013-07-21 02:30:00,81.5,77.9,30.05,SSW,193,2.0,6.0,89,0.00,,,0.00,WeatherDisplay:10.37,2013-07-21 06:30:00,
2013-07-21 02:40:00,81.5,77.9,30.04,SSW,195,0.0,4.0,89,0.00,,,0.00,WeatherDisplay:10.37,2013-07-21 06:40:00,
2013-07-21 02:50:00,81.6,78.0,30.04,SSW,193,1.0,3.0,89,0.00,,,0.00,WeatherDisplay:10.37,2013-07-21 06:50:00,
2013-07-21 03:00:00,81.6,78.0,30.04,South,189,1.0,7.0,89,0.00,,,0.00,WeatherDisplay:10.37,2013-07-21 07:00:00,
2013-07-21 03:10:00,81.3,77.1,30.04,SSW,192,0.0,6.0,87,0.00,,,0.00,WeatherDisplay:10.37,2013-07-21 07:10:00,
2013-07-21 03:20:00,81.4,77.5,30.04,SSW,192,1.0,4.0,88,0.00,,,0.00,WeatherDisplay:10.37,2013-07-21 07:20:00,
2013-07-21 03:30:00,81.5,77.6,30.04,South,185,1.0,4.0,88,0.00,,,0.00,WeatherDisplay:10.37,2013-07-21 07:30:00,
2013-07-21 03:40:00,81.6,78.0,30.04,South,174,2.0,5.0,89,0.00,,,0.00,WeatherDisplay:10.37,2013-07-21 07:40:00,
2013-07-21 03:50:00,81.7,78.1,30.04,South,183,1.0,5.0,89,0.00,,,0.00,WeatherDisplay:10.37,2013-07-21 07:50:00,
2013-07-21 04:00:00,81.7,78.1,30.05,SSW,196,0.0,3.0,89,0.00,,,0.00,WeatherDisplay:10.37,2013-07-21 08:00:00,
2013-07-21 04:10:00,81.7,78.1,30.05,SSW,199,0.0,2.0,89,0.00,,,0.00,WeatherDisplay:10.37,2013-07-21 08:10:00,
2013-07-21 04:20:00,81.6,78.0,30.04,SSW,198,1.0,3.0,89,0.00,,,0.00,WeatherDisplay:10.37,2013-07-21 08:20:00,
2013-07-21 04:30:00,81.5,78.0,30.04,SSW,199,0.0,2.0,89,0.00,,,0.00,WeatherDisplay:10.37,2013-07-21 08:30:00,
2013-07-21 04:40:00,81.5,77.9,30.04,SSW,199,0.0,2.0,89,0.00,,,0.00,WeatherDisplay:10.37,2013-07-21 08:40:00,
2013-07-21 04:50:00,81.4,77.8,30.03,SSW,192,1.0,3.0,89,0.00,,,0.00,WeatherDisplay:10.37,2013-07-21 08:50:00,
2013-07-21 05:00:00,81.4,78.1,30.04,SSW,204,0.0,3.0,90,0.00,,,0.00,WeatherDisplay:10.37,2013-07-21 09:00:00,
2013-07-21 05:10:00,81.2,78.0,30.04,SSW,202,1.0,4.0,90,0.00,,,0.00,WeatherDisplay:10.37,2013-07-21 09:10:00,
2013-07-21 05:20:00,81.2,78.0,30.04,SSE,160,0.0,3.0,90,0.00,,,0.00,WeatherDisplay:10.37,2013-07-21 09:20:00,
2013-07-21 05:30:00,80.9,77.4,30.04,SE,134,0.0,1.0,89,0.00,,,0.00,WeatherDisplay:10.37,2013-07-21 09:30:00,
2013-07-21 05:40:00,80.9,77.4,30.04,SE,134,0.0,1.0,89,0.00,,,0.00,WeatherDisplay:10.37,2013-07-21 09:40:00,
2013-07-21 05:50:00,80.8,77.3,30.04,South,171,3.0,7.0,89,0.03,RA,,0.03,WeatherDisplay:10.37,2013-07-21 09:50:00,
2013-07-21 06:00:00,80.5,77.0,30.04,South,186,1.0,9.0,89,0.05,RA,,0.08,WeatherDisplay:10.37,2013-07-21 10:00:00,
2013-07-21 06:10:00,80.0,76.1,30.04,South,169,0.0,3.0,88,0.00,RA,,0.08,WeatherDisplay:10.37,2013-07-21 10:10:00,
2013-07-21 06:20:00,79.5,75.3,30.05,South,175,0.0,1.0,87,0.00,RA,,0.08,WeatherDisplay:10.37,2013-07-21 10:20:00,
2013-07-21 06:30:00,79.1,75.6,30.05,South,175,0.0,1.0,89,0.00,RA,,0.08,WeatherDisplay:10.37,2013-07-21 10:30:00,
2013-07-21 06:40:00,78.9,75.3,30.05,South,175,0.0,0.0,89,0.00,RA,,0.08,WeatherDisplay:10.37,2013-07-21 10:40:00,
2013-07-21 06:50:00,78.6,75.5,30.06,South,175,0.0,0.0,90,0.00,RA,,0.08,WeatherDisplay:10.37,2013-07-21 10:50:00,
2013-07-21 07:00:00,78.5,75.7,30.06,South,175,0.0,0.0,91,0.00,RA,,0.08,WeatherDisplay:10.37,2013-07-21 11:00:00,
2013-07-21 07:10:00,78.5,76.0,30.07,South,175,0.0,0.0,92,0.00,RA,,0.08,WeatherDisplay:10.37,2013-07-21 11:10:00,
2013-07-21 07:20:00,78.5,76.3,30.08,SSE,156,0.0,1.0,93,0.00,RA,,0.08,WeatherDisplay:10.37,2013-07-21 11:20:00,
2013-07-21 07:30:00,78.8,76.9,30.08,ENE,77,0.0,3.0,94,0.00,RA,,0.08,WeatherDisplay:10.37,2013-07-21 11:30:00,
2013-07-21 07:40:00,79.0,77.1,30.08,East,82,0.0,2.0,94,0.00,RA,,0.08,WeatherDisplay:10.37,2013-07-21 11:40:00,
2013-07-21 07:50:00,78.9,76.7,30.08,NE,45,1.0,5.0,93,0.00,RA,,0.08,WeatherDisplay:10.37,2013-07-21 11:50:00,
2013-07-21 08:00:00,78.5,76.3,30.08,ENE,65,0.0,5.0,93,0.00,RA,,0.08,WeatherDisplay:10.37,2013-07-21 12:00:00,
2013-07-21 08:10:00,78.4,76.2,30.08,East,80,0.0,3.0,93,0.00,RA,,0.08,WeatherDisplay:10.37,2013-07-21 12:10:00,
2013-07-21 08:20:00,78.4,76.2,30.08,East,80,0.0,2.0,93,0.00,RA,,0.08,WeatherDisplay:10.37,2013-07-21 12:20:00,
2013-07-21 08:30:00,78.5,76.6,30.08,East,80,0.0,1.0,94,0.00,RA,,0.08,WeatherDisplay:10.37,2013-07-21 12:30:00,
2013-07-21 08:40:00,78.9,77.0,30.08,East,80,0.0,0.0,94,0.00,RA,,0.08,WeatherDisplay:10.37,2013-07-21 12:40:00,
2013-07-21 08:50:00,79.4,77.5,30.08,East,80,0.0,0.0,94,0.00,RA,,0.08,WeatherDisplay:10.37,2013-07-21 12:50:00,
2013-07-21 09:00:00,80.1,78.2,30.09,East,80,0.0,2.0,94,0.00,RA,,0.08,WeatherDisplay:10.37,2013-07-21 13:00:00,
2013-07-21 09:10:00,80.3,78.4,30.09,East,80,0.0,0.0,94,0.00,RA,,0.08,WeatherDisplay:10.37,2013-07-21 13:10:00,
2013-07-21 09:20:00,80.5,78.9,30.09,East,80,0.0,0.0,95,0.00,RA,,0.08,WeatherDisplay:10.37,2013-07-21 13:20:00,
2013-07-21 09:30:00,80.6,78.7,30.10,East,80,0.0,0.0,94,0.00,RA,,0.08,WeatherDisplay:10.37,2013-07-21 13:30:00,
2013-07-21 09:40:00,81.3,79.4,30.10,ESE,109,0.0,3.0,94,0.00,RA,,0.08,WeatherDisplay:10.37,2013-07-21 13:40:00,
2013-07-21 09:50:00,81.5,79.0,30.10,ESE,103,1.0,4.0,92,0.00,RA,,0.08,WeatherDisplay:10.37,2013-07-21 13:50:00,
2013-07-21 10:00:00,80.6,78.7,30.10,East,80,1.0,6.0,94,0.00,RA,,0.08,WeatherDisplay:10.37,2013-07-21 14:00:00,
2013-07-21 10:10:00,81.0,78.8,30.10,East,85,2.0,4.0,93,0.00,RA,,0.08,WeatherDisplay:10.37,2013-07-21 14:10:00,
2013-07-21 10:20:00,81.5,79.0,30.10,East,94,2.0,5.0,92,0.00,RA,,0.08,WeatherDisplay:10.37,2013-07-21 14:20:00,
2013-07-21 10:40:00,82.7,79.5,30.11,ESE,107,2.0,6.0,90,0.00,RA,,0.08,WeatherDisplay:10.37,2013-07-21 14:40:00,
2013-07-21 10:50:00,82.9,79.3,30.11,East,99,1.0,6.0,89,0.01,RA,,0.09,WeatherDisplay:10.37,2013-07-21 14:50:00,
2013-07-21 11:00:00,82.7,79.5,30.11,ESE,103,2.0,5.0,90,0.00,RA,,0.09,WeatherDisplay:10.37,2013-07-21 15:00:00,
2013-07-21 11:10:00,82.5,79.3,30.11,East,89,1.0,5.0,90,0.00,RA,,0.09,WeatherDisplay:10.37,2013-07-21 15:10:00,
2013-07-21 11:20:00,82.8,79.6,30.12,East,96,0.0,4.0,90,0.00,RA,,0.09,WeatherDisplay:10.37,2013-07-21 15:20:00,
2013-07-21 11:30:00,83.6,80.0,30.12,East,96,0.0,2.0,89,0.00,RA,,0.09,WeatherDisplay:10.37,2013-07-21 15:30:00,
2013-07-21 11:40:00,84.8,80.2,30.11,ESE,115,1.0,4.0,86,0.00,RA,,0.09,WeatherDisplay:10.37,2013-07-21 15:40:00,
2013-07-21 11:50:00,85.0,79.3,30.11,South,186,3.0,6.0,83,0.00,RA,,0.09,WeatherDisplay:10.37,2013-07-21 15:50:00,
2013-07-21 12:00:00,85.2,79.1,30.11,South,174,2.0,7.0,82,0.00,RA,,0.09,WeatherDisplay:10.37,2013-07-21 16:00:00,
2013-07-21 12:10:00,87.7,79.6,30.11,SSE,166,3.0,8.0,77,0.00,RA,,0.09,WeatherDisplay:10.37,2013-07-21 16:10:00,
2013-07-21 12:20:00,87.7,79.2,30.11,SSE,164,1.0,7.0,76,0.00,RA,,0.09,WeatherDisplay:10.37,2013-07-21 16:20:00,
2013-07-21 12:30:00,87.0,79.7,30.11,South,169,1.0,9.0,79,0.00,RA,,0.09,WeatherDisplay:10.37,2013-07-21 16:30:00,
2013-07-21 12:40:00,86.3,79.4,30.11,South,191,2.0,8.0,80,0.00,RA,,0.09,WeatherDisplay:10.37,2013-07-21 16:40:00,
2013-07-21 12:50:00,86.6,79.3,30.11,South,188,1.0,7.0,79,0.00,RA,,0.09,WeatherDisplay:10.37,2013-07-21 16:50:00,
2013-07-21 13:00:00,87.2,80.2,30.11,South,179,2.0,8.0,80,0.00,RA,,0.09,WeatherDisplay:10.37,2013-07-21 17:00:00,
2013-07-21 13:10:00,88.8,80.2,30.11,South,170,2.0,8.0,76,0.00,RA,,0.09,WeatherDisplay:10.37,2013-07-21 17:10:00,
2013-07-21 13:20:00,90.4,80.5,30.10,South,177,2.0,8.0,73,0.00,RA,,0.09,WeatherDisplay:10.37,2013-07-21 17:20:00,
2013-07-21 13:30:00,89.8,80.4,30.10,South,180,1.0,6.0,74,0.00,RA,,0.09,WeatherDisplay:10.37,2013-07-21 17:30:00,
2013-07-21 13:40:00,91.0,80.3,30.10,SW,220,1.0,8.0,71,0.00,RA,,0.09,WeatherDisplay:10.37,2013-07-21 17:40:00,
2013-07-21 13:50:00,90.9,81.0,30.09,SSW,206,2.0,6.0,73,0.00,RA,,0.09,WeatherDisplay:10.37,2013-07-21 17:50:00,
2013-07-21 14:00:00,89.8,79.6,30.09,South,182,3.0,6.0,72,0.00,RA,,0.09,WeatherDisplay:10.37,2013-07-21 18:00:00,
2013-07-21 14:10:00,89.8,80.0,30.09,South,180,3.0,8.0,73,0.00,RA,,0.09,WeatherDisplay:10.37,2013-07-21 18:10:00,
2013-07-21 14:20:00,91.0,78.5,30.08,South,173,5.0,8.0,67,0.00,RA,,0.09,WeatherDisplay:10.37,2013-07-21 18:20:00,
2013-07-21 14:30:00,91.2,79.1,30.08,South,187,5.0,7.0,68,0.00,RA,,0.09,WeatherDisplay:10.37,2013-07-21 18:30:00,
2013-07-21 14:40:00,91.1,78.6,30.08,SSW,196,5.0,7.0,67,0.00,RA,,0.09,WeatherDisplay:10.37,2013-07-21 18:40:00,
2013-07-21 14:50:00,89.7,79.0,30.07,South,187,3.0,8.0,71,0.00,RA,,0.09,WeatherDisplay:10.37,2013-07-21 18:50:00,
2013-07-21 15:00:00,89.9,77.9,30.07,SSW,197,2.0,6.0,68,0.00,RA,,0.09,WeatherDisplay:10.37,2013-07-21 19:00:00,
2013-07-21 15:10:00,90.3,78.8,30.07,SSW,195,1.0,9.0,69,0.00,RA,,0.09,WeatherDisplay:10.37,2013-07-21 19:10:00,
2013-07-21 15:20:00,88.4,78.6,30.06,SSW,200,2.0,8.0,73,0.00,RA,,0.09,WeatherDisplay:10.37,2013-07-21 19:20:00,
2013-07-21 15:30:00,88.3,78.6,30.06,SSW,208,2.0,7.0,73,0.00,RA,,0.09,WeatherDisplay:10.37,2013-07-21 19:30:00,
2013-07-21 15:40:00,88.6,80.1,30.06,SSW,208,3.0,9.0,76,0.00,RA,,0.09,WeatherDisplay:10.37,2013-07-21 19:40:00,
2013-07-21 15:50:00,88.4,80.3,30.05,South,175,2.0,8.0,77,0.00,RA,,0.09,WeatherDisplay:10.37,2013-07-21 19:50:00,
2013-07-21 16:00:00,87.2,79.5,30.05,SSE,168,3.0,7.0,78,0.00,RA,,0.09,WeatherDisplay:10.37,2013-07-21 20:00:00,
2013-07-21 16:10:00,87.2,79.5,30.05,SSW,200,2.0,9.0,78,0.00,RA,,0.09,WeatherDisplay:10.37,2013-07-21 20:10:00,
2013-07-21 16:20:00,87.5,79.8,30.05,South,177,2.0,8.0,78,0.00,RA,,0.09,WeatherDisplay:10.37,2013-07-21 20:20:00,
2013-07-21 16:30:00,87.8,80.4,30.05,SSE,162,1.0,7.0,79,0.00,RA,,0.09,WeatherDisplay:10.37,2013-07-21 20:30:00,
2013-07-21 16:40:00,88.6,80.0,30.04,South,182,1.0,6.0,76,0.00,RA,,0.09,WeatherDisplay:10.37,2013-07-21 20:40:00,
2013-07-21 16:50:00,89.1,79.3,30.04,SSW,192,5.0,9.0,73,0.00,RA,,0.09,WeatherDisplay:10.37,2013-07-21 20:50:00,
2013-07-21 17:00:00,88.3,79.3,30.03,South,188,2.0,7.0,75,0.00,RA,,0.09,WeatherDisplay:10.37,2013-07-21 21:00:00,
2013-07-21 17:10:00,88.5,79.2,30.03,SSW,203,3.0,8.0,74,0.00,RA,,0.09,WeatherDisplay:10.37,2013-07-21 21:10:00,
2013-07-21 17:20:00,88.4,79.1,30.04,SSW,200,0.0,7.0,74,0.00,RA,,0.09,WeatherDisplay:10.37,2013-07-21 21:20:00,
2013-07-21 17:30:00,88.5,78.7,30.05,South,184,2.0,5.0,73,0.00,RA,,0.09,WeatherDisplay:10.37,2013-07-21 21:30:00,
2013-07-21 17:40:00,88.1,78.8,30.05,South,182,2.0,6.0,74,0.00,RA,,0.09,WeatherDisplay:10.37,2013-07-21 21:40:00,
2013-07-21 17:50:00,88.4,79.0,30.04,SSW,206,3.0,5.0,74,0.00,RA,,0.09,WeatherDisplay:10.37,2013-07-21 21:50:00,
2013-07-21 18:00:00,88.0,79.5,30.04,South,188,2.0,6.0,76,0.00,RA,,0.09,WeatherDisplay:10.37,2013-07-21 22:00:00,
2013-07-21 18:10:00,88.3,79.3,30.04,SSW,211,2.0,6.0,75,0.00,RA,,0.09,WeatherDisplay:10.37,2013-07-21 22:10:00,
2013-07-21 18:20:00,88.0,79.1,30.04,SSW,213,1.0,6.0,75,0.00,RA,,0.09,WeatherDisplay:10.37,2013-07-21 22:20:00,
2013-07-21 18:30:00,87.0,78.9,30.04,South,190,2.0,6.0,77,0.00,RA,,0.09,WeatherDisplay:10.37,2013-07-21 22:30:00,
2013-07-21 18:40:00,86.6,79.3,30.04,SSW,200,2.0,6.0,79,0.00,RA,,0.09,WeatherDisplay:10.37,2013-07-21 22:40:00,
2013-07-21 18:50:00,86.1,78.5,30.04,South,190,2.0,5.0,78,0.00,RA,,0.09,WeatherDisplay:10.37,2013-07-21 22:50:00,
2013-07-21 19:00:00,85.9,78.6,30.05,SW,216,1.0,5.0,79,0.00,RA,,0.09,WeatherDisplay:10.37,2013-07-21 23:00:00,
2013-07-21 19:10:00,85.9,79.0,30.05,SW,227,1.0,5.0,80,0.00,RA,,0.09,WeatherDisplay:10.37,2013-07-21 23:10:00,
2013-07-21 19:20:00,85.6,78.8,30.05,SW,219,1.0,5.0,80,0.00,RA,,0.09,WeatherDisplay:10.37,2013-07-21 23:20:00,
2013-07-21 19:30:00,85.4,78.9,30.05,SW,226,0.0,5.0,81,0.00,RA,,0.09,WeatherDisplay:10.37,2013-07-21 23:30:00,
2013-07-21 19:40:00,85.1,78.6,30.05,SSW,200,0.0,5.0,81,0.00,RA,,0.09,WeatherDisplay:10.37,2013-07-21 23:40:00,
2013-07-21 20:00:00,84.9,78.4,30.07,WSW,240,0.0,3.0,81,0.00,RA,,0.09,WeatherDisplay:10.37,2013-07-22 00:00:00,
2013-07-21 20:10:00,84.7,78.6,30.07,WSW,240,0.0,2.0,82,0.00,RA,,0.09,WeatherDisplay:10.37,2013-07-22 00:10:00,
2013-07-21 20:20:00,84.3,78.2,30.08,SW,217,0.0,2.0,82,0.00,RA,,0.09,WeatherDisplay:10.37,2013-07-22 00:20:00,
2013-07-21 20:30:00,84.1,78.4,30.08,SSW,209,0.0,1.0,83,0.00,RA,,0.09,WeatherDisplay:10.37,2013-07-22 00:30:00,
2013-07-21 20:50:00,83.6,77.9,30.09,SSW,209,0.0,0.0,83,0.00,RA,,0.09,WeatherDisplay:10.37,2013-07-22 00:50:00,
2013-07-21 21:00:00,83.5,78.5,30.09,SSW,209,0.0,0.0,85,0.00,RA,,0.09,WeatherDisplay:10.37,2013-07-22 01:00:00,
2013-07-21 21:10:00,83.5,78.5,30.10,SSW,209,0.0,0.0,85,0.00,RA,,0.09,WeatherDisplay:10.37,2013-07-22 01:10:00,
2013-07-21 21:20:00,83.0,78.4,30.10,SSW,209,0.0,0.0,86,0.00,RA,,0.09,WeatherDisplay:10.37,2013-07-22 01:20:00,
2013-07-21 21:30:00,82.9,78.3,30.10,SSW,209,0.0,0.0,86,0.00,RA,,0.09,WeatherDisplay:10.37,2013-07-22 01:30:00,
2013-07-21 21:40:00,82.9,78.6,30.10,SSW,209,0.0,0.0,87,0.00,RA,,0.09,WeatherDisplay:10.37,2013-07-22 01:40:00,
2013-07-21 21:50:00,82.8,78.9,30.10,SSW,209,0.0,0.0,88,0.00,RA,,0.09,WeatherDisplay:10.37,2013-07-22 01:50:00,
2013-07-21 22:00:00,82.7,78.8,30.10,SSW,209,0.0,0.0,88,0.00,RA,,0.09,WeatherDisplay:10.37,2013-07-22 02:00:00,
2013-07-21 22:10:00,82.3,78.7,30.10,SSW,209,0.0,0.0,89,0.00,RA,,0.09,WeatherDisplay:10.37,2013-07-22 02:10:00,
2013-07-21 22:20:00,82.1,78.9,30.10,SSW,209,0.0,0.0,90,0.00,RA,,0.09,WeatherDisplay:10.37,2013-07-22 02:20:00,
2013-07-21 22:30:00,82.0,78.8,30.10,SSW,209,0.0,0.0,90,0.00,RA,,0.09,WeatherDisplay:10.37,2013-07-22 02:30:00,
2013-07-21 22:40:00,81.8,78.6,30.11,SSW,209,0.0,0.0,90,0.00,RA,,0.09,WeatherDisplay:10.37,2013-07-22 02:40:00,
2013-07-21 22:50:00,81.6,78.4,30.11,SSW,209,0.0,0.0,90,0.00,RA,,0.09,WeatherDisplay:10.37,2013-07-22 02:50:00,
2013-07-21 22:59:00,81.4,77.8,30.11,South,176,1.0,5.0,89,0.00,RA,,0.09,WeatherDisplay:10.37,2013-07-22 02:59:00,
2013-07-21 23:10:00,81.0,76.4,30.11,NE,42,1.0,3.0,86,0.00,RA,,0.09,WeatherDisplay:10.37,2013-07-22 03:10:00,
2013-07-21 23:20:00,80.9,76.3,30.12,ENE,63,0.0,4.0,86,0.00,RA,,0.09,WeatherDisplay:10.37,2013-07-22 03:20:00,
2013-07-21 23:29:00,80.7,76.1,30.11,ENE,70,1.0,2.0,86,0.00,RA,,0.09,WeatherDisplay:10.37,2013-07-22 03:29:00,
2013-07-21 23:39:00,80.6,76.0,30.12,ENE,70,0.0,2.0,86,0.00,RA,,0.09,WeatherDisplay:10.37,2013-07-22 03:39:00,
2013-07-21 23:49:00,80.5,76.2,30.12,ENE,70,0.0,2.0,87,0.00,RA,,0.09,WeatherDisplay:10.37,2013-07-22 03:49:00,
2013-07-21 23:59:00,80.4,76.1,30.12,East,86,2.0,5.0,87,0.00,,,0.00,WeatherDisplay:10.37,2013-07-22 03:59:00,